Time;durP1;ratioP1;P1;durP2;ratioP2;P2;SDS_P1;SDS_P2;PMS_P1;PMS_P2;Temp;Humidity;BMP_temperature;BMP_pressure;BME280_temperature;BME280_humidity;BME280_pressure;Samples;Min_cycle;Max_cycle;Signal;HPM_P1;HPM_P2
2022/07/21 00:00:30;;;;;;;38.97;28.33;;;25.20;65.50;;;;;;5011165;28;20177;-74
2022/07/21 00:02:57;;;;;;;38.43;27.30;;;25.10;67.20;;;;;;4991187;28;20189;-73
2022/07/21 00:05:23;;;;;;;35.40;27.33;;;24.90;69.00;;;;;;4993931;28;20207;-74
2022/07/21 00:07:50;;;;;;;31.97;25.47;;;24.70;68.20;;;;;;5005705;28;20423;-74
2022/07/21 00:10:17;;;;;;;35.00;26.83;;;24.90;66.00;;;;;;5007044;28;20515;-74
2022/07/21 00:12:42;;;;;;;40.93;26.80;;;24.90;68.70;;;;;;5003673;28;20826;-74
2022/07/21 00:15:09;;;;;;;46.63;28.03;;;24.90;68.70;;;;;;4992242;28;20444;-74
2022/07/21 00:17:35;;;;;;;44.40;28.77;;;24.90;67.90;;;;;;4989320;28;20217;-74
2022/07/21 00:20:02;;;;;;;36.80;26.33;;;24.90;68.70;;;;;;4993110;28;20963;-74
2022/07/21 00:22:28;;;;;;;38.50;27.03;;;24.80;69.20;;;;;;5004586;28;20404;-74
2022/07/21 00:24:53;;;;;;;37.03;27.20;;;24.70;70.60;;;;;;4999139;28;20932;-74
2022/07/21 00:27:19;;;;;;;41.87;27.87;;;24.80;70.40;;;;;;4994057;28;20185;-74
2022/07/21 00:29:44;;;;;;;36.87;27.33;;;24.80;69.10;;;;;;5000594;28;20184;-74
2022/07/21 00:32:10;;;;;;;36.70;27.20;;;24.70;69.70;;;;;;5001245;28;20188;-74
2022/07/21 00:34:36;;;;;;;36.53;25.43;;;24.70;69.80;;;;;;4988258;28;20210;-74
2022/07/21 00:37:01;;;;;;;44.97;27.30;;;24.70;71.00;;;;;;4993619;28;20173;-74
2022/07/21 00:39:27;;;;;;;30.60;26.03;;;24.80;70.50;;;;;;5000298;28;20668;-74
2022/07/21 00:41:53;;;;;;;34.30;25.17;;;24.70;69.70;;;;;;4989430;28;20185;-74
2022/07/21 00:44:23;;;;;;;32.23;24.20;;;24.50;70.70;;;;;;5004448;28;20184;-74
2022/07/21 00:46:49;;;;;;;36.97;25.10;;;24.50;70.30;;;;;;4994231;28;20522;-74
2022/07/21 00:49:15;;;;;;;33.10;24.50;;;24.50;69.10;;;;;;4993147;28;20467;-74
2022/07/21 00:51:41;;;;;;;35.20;22.97;;;24.50;70.40;;;;;;4996713;28;20447;-74
2022/07/21 00:54:07;;;;;;;29.80;22.57;;;24.60;69.90;;;;;;5000234;28;20470;-74
2022/07/21 00:56:32;;;;;;;34.93;23.63;;;24.60;69.60;;;;;;4999705;28;20200;-73
2022/07/21 00:58:58;;;;;;;29.70;21.40;;;24.70;70.70;;;;;;5000459;28;20181;-73
2022/07/21 01:01:23;;;;;;;31.80;22.23;;;24.70;66.20;;;;;;4994510;28;20187;-73
2022/07/21 01:03:49;;;;;;;31.63;21.20;;;23.70;72.70;;;;;;5003976;28;20177;-73
2022/07/21 01:06:15;;;;;;;30.23;21.80;;;23.70;73.50;;;;;;5010182;28;20231;-74
2022/07/21 01:08:40;;;;;;;28.83;21.30;;;23.60;74.40;;;;;;4978732;28;20193;-73
2022/07/21 01:11:06;;;;;;;24.60;21.20;;;23.00;79.60;;;;;;4991490;28;20185;-73
2022/07/21 01:13:32;;;;;;;31.20;21.60;;;23.00;80.20;;;;;;5000399;28;20213;-73
2022/07/21 01:15:58;;;;;;;30.40;20.50;;;;;;;;;;4992915;28;20781;-73
2022/07/21 01:18:25;;;;;;;31.13;21.03;;;23.50;75.80;;;;;;4990932;28;20431;-73
2022/07/21 01:20:54;;;;;;;27.73;22.50;;;23.50;76.30;;;;;;4992288;28;20407;-73
2022/07/21 01:23:21;;;;;;;43.77;24.73;;;23.80;74.80;;;;;;4996107;28;20662;-74
2022/07/21 01:25:49;;;;;;;30.03;23.43;;;24.30;70.80;;;;;;5007176;28;20967;-73
2022/07/21 01:28:14;;;;;;;39.53;27.10;;;24.60;65.30;;;;;;4992447;28;20438;-73
2022/07/21 01:30:40;;;;;;;36.23;24.00;;;24.70;65.60;;;;;;4996253;28;20518;-74
2022/07/21 01:33:06;;;;;;;38.50;25.00;;;24.80;65.30;;;;;;5003102;28;20261;-73
2022/07/21 01:35:31;;;;;;;31.03;25.17;;;24.70;65.80;;;;;;5011986;28;20196;-74
2022/07/21 01:37:58;;;;;;;40.17;26.17;;;24.80;66.30;;;;;;4994356;28;20180;-73
2022/07/21 01:43:08;;;;;;;36.10;21.47;;;24.60;63.90;;;;;;5003068;28;20786;-73
2022/07/21 01:45:35;;;;;;;30.57;20.77;;;;;;;;;;5011528;28;20440;-74
2022/07/21 01:48:01;;;;;;;36.37;20.63;;;24.10;68.40;;;;;;4993477;28;20185;-73
2022/07/21 01:50:26;;;;;;;32.10;17.53;;;24.10;69.00;;;;;;4995426;28;20447;-73
2022/07/21 01:52:57;;;;;;;27.80;18.30;;;24.30;65.70;;;;;;4976194;28;20198;-73
2022/07/21 01:55:24;;;;;;;23.53;18.10;;;24.20;66.10;;;;;;4991734;28;20460;-73
2022/07/21 01:57:49;;;;;;;28.03;16.70;;;24.30;66.10;;;;;;4991877;28;20823;-73
2022/07/21 02:00:16;;;;;;;19.93;15.27;;;24.20;67.90;;;;;;4986921;28;20421;-74
2022/07/21 02:02:41;;;;;;;21.17;15.60;;;24.30;64.30;;;;;;4973017;28;20213;-74
2022/07/21 02:05:07;;;;;;;27.57;16.47;;;24.30;62.70;;;;;;4991199;28;20497;-74
2022/07/21 02:07:33;;;;;;;21.50;15.40;;;24.30;63.50;;;;;;4991874;28;20189;-74
2022/07/21 02:09:58;;;;;;;15.60;13.37;;;24.20;62.70;;;;;;4991795;28;20474;-74
2022/07/21 02:12:24;;;;;;;20.77;14.70;;;24.20;62.50;;;;;;4993317;28;20180;-73
2022/07/21 02:14:50;;;;;;;21.20;15.13;;;24.00;65.50;;;;;;5006610;28;20204;-73
2022/07/21 02:17:15;;;;;;;18.97;14.53;;;23.80;65.30;;;;;;5011485;28;20173;-73
2022/07/21 02:19:41;;;;;;;19.60;14.87;;;23.80;68.00;;;;;;5011389;28;20175;-74
2022/07/21 02:22:06;;;;;;;20.17;14.50;;;23.90;67.00;;;;;;4991856;28;20248;-74
2022/07/21 02:24:34;;;;;;;22.97;15.47;;;23.70;68.70;;;;;;4997969;28;20208;-74
2022/07/21 02:27:00;;;;;;;18.90;14.33;;;23.70;69.30;;;;;;4991728;28;20187;-74
2022/07/21 02:29:26;;;;;;;21.67;15.13;;;24.00;64.80;;;;;;4989764;28;20406;-73
2022/07/21 02:31:51;;;;;;;28.00;15.87;;;24.20;63.80;;;;;;4991390;28;20790;-74
2022/07/21 02:34:17;;;;;;;24.43;15.07;;;24.10;67.30;;;;;;5001446;28;20544;-74
2022/07/21 02:36:42;;;;;;;25.23;16.90;;;24.10;68.30;;;;;;5011100;28;20225;-74
2022/07/21 02:39:08;;;;;;;23.70;15.10;;;;;;;;;;5011057;28;20576;-73
2022/07/21 02:41:34;;;;;;;25.13;16.00;;;24.00;67.70;;;;;;5010755;28;20241;-73
2022/07/21 02:44:00;;;;;;;23.40;15.20;;;24.00;68.40;;;;;;4995942;28;20529;-73
2022/07/21 02:46:25;;;;;;;19.60;15.43;;;24.10;67.60;;;;;;4992024;28;20332;-74
2022/07/21 02:48:51;;;;;;;23.53;16.60;;;24.00;68.60;;;;;;4991578;28;20554;-74
2022/07/21 02:51:17;;;;;;;24.70;16.90;;;24.10;69.40;;;;;;4990916;28;20180;-74
2022/07/21 02:53:42;;;;;;;20.97;16.57;;;;;;;;;;4981455;28;20276;-74
2022/07/21 02:56:09;;;;;;;22.20;16.20;;;;;;;;;;4997937;28;20253;-73
2022/07/21 02:58:34;;;;;;;24.83;15.10;;;24.00;70.10;;;;;;5013484;28;20433;-74
2022/07/21 03:01:03;;;;;;;29.13;16.77;;;24.00;69.30;;;;;;5014484;28;20499;-73
2022/07/21 03:03:33;;;;;;;24.63;15.97;;;24.10;68.10;;;;;;5003119;28;20181;-73
2022/07/21 03:05:59;;;;;;;20.80;15.70;;;24.00;69.40;;;;;;5004767;28;20455;-73
2022/07/21 03:08:27;;;;;;;24.93;16.80;;;24.00;69.20;;;;;;5014630;28;20423;-73
2022/07/21 03:10:53;;;;;;;20.00;15.30;;;24.00;70.00;;;;;;5013972;28;20813;-73
2022/07/21 03:13:18;;;;;;;18.73;15.10;;;24.00;69.40;;;;;;5008198;28;20467;-74
2022/07/21 03:15:44;;;;;;;20.30;16.00;;;23.90;70.50;;;;;;5001357;28;20204;-73
2022/07/21 03:18:10;;;;;;;22.10;16.50;;;24.10;68.70;;;;;;5006348;28;20203;-74
2022/07/21 03:20:39;;;;;;;27.90;16.40;;;24.10;68.60;;;;;;5007675;28;20441;-73
2022/07/21 03:23:05;;;;;;;27.63;16.67;;;24.20;68.40;;;;;;5005454;28;20440;-74
2022/07/21 03:25:31;;;;;;;20.20;15.00;;;24.20;68.70;;;;;;5003783;28;20479;-72
2022/07/21 03:27:57;;;;;;;28.23;15.63;;;24.20;68.10;;;;;;5004441;28;20446;-73
2022/07/21 03:30:24;;;;;;;21.63;13.90;;;24.30;65.30;;;;;;5003367;28;20420;-74
2022/07/21 03:32:50;;;;;;;42.80;15.63;;;24.10;61.70;;;;;;4974750;28;20578;-73
2022/07/21 03:35:17;;;;;;;18.40;13.57;;;24.00;67.00;;;;;;4983742;28;20462;-73
2022/07/21 03:37:43;;;;;;;25.57;15.93;;;24.10;64.60;;;;;;5006391;28;20872;-73
2022/07/21 03:40:11;;;;;;;22.00;15.30;;;24.10;64.50;;;;;;5012127;28;20424;-73
2022/07/21 03:42:37;;;;;;;16.80;13.87;;;24.10;62.70;;;;;;5013579;28;20405;-73
2022/07/21 03:45:03;;;;;;;22.03;15.73;;;24.10;64.20;;;;;;5008096;28;20501;-73
2022/07/21 03:47:28;;;;;;;22.43;15.70;;;24.10;64.40;;;;;;5002441;28;20191;-73
2022/07/21 03:49:54;;;;;;;24.67;16.63;;;24.00;65.90;;;;;;4992723;28;20432;-73
2022/07/21 03:52:19;;;;;;;20.93;15.27;;;24.10;65.70;;;;;;4993436;28;20180;-73
2022/07/21 03:54:45;;;;;;;22.67;16.97;;;24.10;67.70;;;;;;4993911;28;20644;-73
2022/07/21 03:57:11;;;;;;;21.90;16.20;;;24.00;68.20;;;;;;4997519;28;20183;-73
2022/07/21 03:59:36;;;;;;;22.83;16.70;;;24.00;68.10;;;;;;5004099;28;20207;-73
2022/07/21 04:02:02;;;;;;;25.33;16.83;;;24.00;67.70;;;;;;4999801;28;20211;-73
2022/07/21 04:04:27;;;;;;;30.53;16.43;;;24.00;68.70;;;;;;5005455;28;20636;-74
2022/07/21 04:06:53;;;;;;;23.77;17.60;;;24.00;68.40;;;;;;4991208;28;20646;-73
2022/07/21 04:09:19;;;;;;;31.23;18.30;;;24.10;68.80;;;;;;5001089;28;20191;-73
2022/07/21 04:11:45;;;;;;;28.30;16.07;;;24.10;69.40;;;;;;4996475;28;20188;-73
2022/07/21 04:14:10;;;;;;;23.27;16.30;;;24.00;67.40;;;;;;5010964;28;20204;-74
2022/07/21 04:16:36;;;;;;;23.20;17.37;;;24.10;68.60;;;;;;4994791;28;20799;-73
2022/07/21 04:19:02;;;;;;;26.57;18.20;;;24.10;69.00;;;;;;5000254;28;20547;-73
2022/07/21 04:21:27;;;;;;;27.90;17.90;;;24.10;69.00;;;;;;4974077;28;20193;-73
2022/07/21 04:23:53;;;;;;;20.87;17.03;;;24.10;68.00;;;;;;4978407;28;20671;-73
2022/07/21 04:26:18;;;;;;;22.60;17.80;;;24.10;68.40;;;;;;5004493;28;20278;-73
2022/07/21 04:28:44;;;;;;;38.37;18.33;;;24.10;68.90;;;;;;5000416;28;20198;-73
2022/07/21 04:31:10;;;;;;;26.37;18.37;;;24.20;66.40;;;;;;5004277;28;20674;-73
2022/07/21 04:33:35;;;;;;;23.60;17.90;;;24.20;66.70;;;;;;5001208;28;20300;-73
2022/07/21 04:36:01;;;;;;;31.27;18.53;;;24.30;67.00;;;;;;5004487;28;20200;-73
2022/07/21 04:38:27;;;;;;;24.17;18.37;;;24.40;66.40;;;;;;4986363;28;20616;-74
2022/07/21 04:40:52;;;;;;;30.60;18.97;;;24.30;68.80;;;;;;5001233;28;20203;-75
2022/07/21 04:43:18;;;;;;;39.40;19.80;;;24.20;68.80;;;;;;5012143;28;20190;-74
2022/07/21 04:45:43;;;;;;;25.13;17.57;;;24.30;67.90;;;;;;4989577;28;20209;-74
2022/07/21 04:48:09;;;;;;;29.33;18.77;;;24.20;68.50;;;;;;4990591;28;20225;-73
2022/07/21 04:50:34;;;;;;;44.40;19.30;;;24.20;69.10;;;;;;4973749;28;20311;-73
2022/07/21 04:53:00;;;;;;;26.80;17.70;;;24.30;69.00;;;;;;4973153;28;20243;-73
2022/07/21 04:55:26;;;;;;;25.27;18.83;;;24.30;69.40;;;;;;4978317;28;20264;-73
2022/07/21 04:57:52;;;;;;;26.37;18.23;;;24.40;68.40;;;;;;5000820;28;20181;-74
2022/07/21 05:00:20;;;;;;;30.43;18.70;;;24.50;66.20;;;;;;4983854;28;20188;-73
2022/07/21 05:02:46;;;;;;;25.57;19.00;;;24.40;66.20;;;;;;4999442;28;20437;-73
2022/07/21 05:05:12;;;;;;;31.60;19.10;;;24.40;67.10;;;;;;5010745;28;20519;-73
2022/07/21 05:07:38;;;;;;;26.47;18.57;;;24.40;69.10;;;;;;5012688;28;20201;-73
2022/07/21 05:10:05;;;;;;;28.43;19.37;;;24.30;68.60;;;;;;5006476;28;20224;-73
2022/07/21 05:12:31;;;;;;;28.17;18.53;;;24.30;67.90;;;;;;4991854;28;20441;-73
2022/07/21 05:14:57;;;;;;;27.53;17.90;;;24.40;68.30;;;;;;5012076;28;20428;-74
2022/07/21 05:17:22;;;;;;;29.83;19.20;;;24.40;67.50;;;;;;5012342;28;20184;-73
2022/07/21 05:19:50;;;;;;;26.13;20.10;;;24.60;67.00;;;;;;5002819;28;20704;-73
2022/07/21 05:22:16;;;;;;;29.03;21.47;;;24.60;67.40;;;;;;4999193;28;20172;-73
2022/07/21 05:24:42;;;;;;;25.77;20.80;;;24.40;68.70;;;;;;4997597;28;20491;-73
2022/07/21 05:27:07;;;;;;;26.70;21.10;;;24.30;68.70;;;;;;4992601;28;20417;-73
2022/07/21 05:29:33;;;;;;;29.63;20.93;;;24.30;69.00;;;;;;4994157;28;20200;-73
2022/07/21 05:31:58;;;;;;;27.57;19.67;;;24.30;69.20;;;;;;5003288;28;20192;-73
2022/07/21 05:34:24;;;;;;;24.97;19.83;;;24.30;67.90;;;;;;4991838;28;20217;-73
2022/07/21 05:36:50;;;;;;;31.87;20.50;;;24.40;69.00;;;;;;4992422;28;20533;-73
2022/07/21 05:39:15;;;;;;;29.93;20.97;;;24.40;68.40;;;;;;4991522;28;20199;-73
2022/07/21 05:41:41;;;;;;;32.00;19.60;;;24.40;67.90;;;;;;4989191;28;20707;-73
2022/07/21 05:44:07;;;;;;;28.20;20.00;;;;;;;;;;4985277;28;20324;-73
2022/07/21 05:46:32;;;;;;;30.83;19.47;;;24.50;68.00;;;;;;4972804;28;20178;-73
2022/07/21 05:48:58;;;;;;;24.50;17.93;;;24.40;66.80;;;;;;4972602;28;20416;-73
2022/07/21 05:51:23;;;;;;;26.17;18.80;;;24.50;64.20;;;;;;4986117;28;20197;-73
2022/07/21 05:53:49;;;;;;;25.70;18.20;;;24.50;66.80;;;;;;4999057;28;20204;-73
2022/07/21 05:56:15;;;;;;;22.87;17.80;;;24.60;66.20;;;;;;4991977;28;20645;-74
2022/07/21 05:58:40;;;;;;;26.23;18.93;;;24.70;65.30;;;;;;4992004;28;20267;-74
2022/07/21 06:01:09;;;;;;;25.50;18.00;;;24.80;62.70;;;;;;4990006;28;20177;-73
2022/07/21 06:03:40;;;;;;;23.87;16.97;;;24.80;60.60;;;;;;4994589;28;20186;-73
2022/07/21 06:06:05;;;;;;;24.10;15.70;;;24.60;60.80;;;;;;4995506;28;20978;-73
2022/07/21 06:08:31;;;;;;;24.80;16.17;;;24.60;61.30;;;;;;5004620;28;20430;-73
2022/07/21 06:10:57;;;;;;;22.43;16.27;;;24.00;64.60;;;;;;5011125;28;20188;-73
2022/07/21 06:13:23;;;;;;;24.70;14.70;;;24.20;61.10;;;;;;4998288;28;20570;-73
2022/07/21 06:15:48;;;;;;;20.60;15.73;;;23.80;67.70;;;;;;4994210;28;20523;-73
2022/07/21 06:18:14;;;;;;;20.87;16.27;;;24.30;60.10;;;;;;4991661;28;20177;-73
2022/07/21 06:20:41;;;;;;;20.60;15.30;;;24.10;62.60;;;;;;4999206;28;20189;-73
2022/07/21 06:23:07;;;;;;;23.07;15.17;;;24.20;63.60;;;;;;4998138;28;20528;-73
2022/07/21 06:25:32;;;;;;;19.97;14.57;;;24.60;57.20;;;;;;5002290;28;20531;-73
2022/07/21 06:27:58;;;;;;;21.97;15.50;;;23.90;63.50;;;;;;4989909;28;20848;-73
2022/07/21 06:30:24;;;;;;;20.63;13.90;;;;;;;;;;4992096;28;20663;-72
2022/07/21 06:32:50;;;;;;;19.10;14.50;;;23.90;63.40;;;;;;5000387;28;20655;-73
2022/07/21 06:35:15;;;;;;;21.50;14.90;;;23.90;61.50;;;;;;5003941;28;20535;-74
2022/07/21 06:37:45;;;;;;;18.20;13.23;;;24.00;57.70;;;;;;4992513;28;20268;-77
2022/07/21 06:40:11;;;;;;;19.00;12.93;;;23.40;57.50;;;;;;4983344;28;20178;-73
2022/07/21 06:42:37;;;;;;;24.17;13.93;;;23.00;61.70;;;;;;5000736;28;20457;-74
2022/07/21 06:45:03;;;;;;;22.83;13.80;;;23.10;61.80;;;;;;4998723;28;20891;-73
2022/07/21 06:47:29;;;;;;;14.30;12.27;;;;;;;;;;4990142;28;20190;-73
2022/07/21 06:49:55;;;;;;;17.03;12.83;;;23.80;55.70;;;;;;4987758;28;20900;-74
2022/07/21 06:52:21;;;;;;;19.27;13.33;;;23.90;56.80;;;;;;4993755;28;20448;-73
2022/07/21 06:54:46;;;;;;;22.73;13.47;;;24.40;54.10;;;;;;4997780;28;20206;-72
2022/07/21 06:57:13;;;;;;;17.80;13.67;;;24.60;52.10;;;;;;5002932;28;20209;-74
2022/07/21 06:59:39;;;;;;;22.70;13.47;;;24.90;51.30;;;;;;4994249;28;20648;-73
2022/07/21 07:02:05;;;;;;;24.63;13.33;;;25.10;50.40;;;;;;4999266;28;20432;-73
2022/07/21 07:04:31;;;;;;;22.77;14.27;;;;;;;;;;5006440;28;20225;-74
2022/07/21 07:06:56;;;;;;;17.27;13.40;;;25.40;48.10;;;;;;4992905;28;20706;-73
2022/07/21 07:09:23;;;;;;;20.87;13.30;;;25.50;46.00;;;;;;5005190;28;20566;-73
2022/07/21 07:11:51;;;;;;;20.60;12.40;;;24.80;48.20;;;;;;4994681;28;20220;-74
2022/07/21 07:14:18;;;;;;;19.97;13.40;;;24.90;47.80;;;;;;4985857;28;20953;-73
2022/07/21 07:16:43;;;;;;;16.10;12.90;;;24.90;47.70;;;;;;4992535;28;20587;-74
2022/07/21 07:19:09;;;;;;;15.93;12.60;;;25.20;46.30;;;;;;4994167;28;20511;-74
2022/07/21 07:21:34;;;;;;;17.97;12.70;;;24.80;46.90;;;;;;5004444;28;20189;-74
2022/07/21 07:24:01;;;;;;;18.80;12.23;;;24.50;47.00;;;;;;4995860;28;20190;-74
2022/07/21 07:26:27;;;;;;;19.13;12.00;;;;;;;;;;4984825;28;20224;-74
2022/07/21 07:28:53;;;;;;;15.23;11.70;;;;;;;;;;4991475;28;20433;-73
2022/07/21 07:31:19;;;;;;;15.37;12.20;;;24.10;46.20;;;;;;4989346;28;20432;-73
2022/07/21 07:33:45;;;;;;;19.50;11.70;;;24.10;47.30;;;;;;4995477;28;20474;-75
2022/07/21 07:36:12;;;;;;;15.37;11.77;;;24.60;45.30;;;;;;4998401;28;20288;-75
2022/07/21 07:38:39;;;;;;;16.10;12.17;;;24.60;44.80;;;;;;4987408;28;20183;-75
2022/07/21 07:41:05;;;;;;;18.90;12.00;;;25.10;49.80;;;;;;4997539;28;20485;-75
2022/07/21 07:43:31;;;;;;;18.63;12.40;;;25.20;48.80;;;;;;4994405;28;20436;-78
2022/07/21 07:45:56;;;;;;;17.30;11.90;;;24.80;42.10;;;;;;4995276;28;20703;-73
2022/07/21 07:48:22;;;;;;;16.40;11.33;;;;;;;;;;4994076;28;20202;-74
2022/07/21 07:50:48;;;;;;;16.30;11.70;;;25.20;41.40;;;;;;4976259;28;20555;-74
2022/07/21 07:53:13;;;;;;;24.33;11.83;;;25.60;42.00;;;;;;4997014;28;20473;-74
2022/07/21 07:55:39;;;;;;;23.03;11.67;;;25.70;40.20;;;;;;4992920;28;20267;-74
2022/07/21 07:58:05;;;;;;;14.43;11.53;;;25.60;39.00;;;;;;4983064;28;20182;-74
2022/07/21 08:00:30;;;;;;;22.47;12.90;;;25.50;39.40;;;;;;4979037;28;20210;-74
2022/07/21 08:02:56;;;;;;;21.73;12.53;;;24.60;43.60;;;;;;5004876;28;20243;-73
2022/07/21 08:05:21;;;;;;;16.40;11.90;;;23.90;44.80;;;;;;4989912;28;20216;-73
2022/07/21 08:07:47;;;;;;;13.33;11.10;;;24.10;46.40;;;;;;4994853;28;20642;-73
2022/07/21 08:10:13;;;;;;;14.70;11.60;;;24.10;46.70;;;;;;5001052;28;20197;-74
2022/07/21 08:12:40;;;;;;;15.00;11.80;;;24.40;47.20;;;;;;4999401;28;20200;-74
2022/07/21 08:15:06;;;;;;;18.97;12.20;;;25.20;45.50;;;;;;4995086;28;20466;-74
2022/07/21 08:17:32;;;;;;;17.57;11.60;;;24.70;43.10;;;;;;4992855;28;20435;-75
2022/07/21 08:19:58;;;;;;;17.70;12.50;;;24.60;42.60;;;;;;4999892;28;20419;-74
2022/07/21 08:22:23;;;;;;;25.83;11.53;;;25.10;39.40;;;;;;5001973;28;20459;-74
2022/07/21 08:24:49;;;;;;;16.27;10.40;;;24.70;41.00;;;;;;4988901;28;20214;-74
2022/07/21 08:27:14;;;;;;;20.27;12.00;;;25.10;41.30;;;;;;4984872;28;20177;-73
2022/07/21 08:29:40;;;;;;;15.60;11.50;;;25.20;41.50;;;;;;4989071;28;20186;-74
2022/07/21 08:32:06;;;;;;;18.90;12.20;;;25.20;41.70;;;;;;4989422;28;20277;-74
2022/07/21 08:34:31;;;;;;;21.43;12.30;;;25.50;40.80;;;;;;4997545;28;20241;-74
2022/07/21 08:36:57;;;;;;;18.50;12.37;;;26.10;40.60;;;;;;4992467;28;20178;-74
2022/07/21 08:39:23;;;;;;;27.47;11.80;;;26.40;39.00;;;;;;4982283;28;20212;-74
2022/07/21 08:41:50;;;;;;;17.43;12.30;;;26.60;37.00;;;;;;4996289;28;20559;-73
2022/07/21 08:44:16;;;;;;;16.80;11.90;;;26.10;39.00;;;;;;4998237;28;20178;-74
2022/07/21 08:46:42;;;;;;;16.03;11.27;;;25.50;38.90;;;;;;5003540;28;20436;-74
2022/07/21 08:49:09;;;;;;;19.07;11.50;;;25.50;39.20;;;;;;4984942;28;20178;-74
2022/07/21 08:51:36;;;;;;;20.40;11.73;;;25.90;38.30;;;;;;4992933;28;20445;-74
2022/07/21 08:54:02;;;;;;;17.47;12.13;;;26.40;38.30;;;;;;4991152;28;20467;-74
2022/07/21 08:56:29;;;;;;;17.43;12.20;;;26.40;39.00;;;;;;5004890;28;20468;-74
2022/07/21 08:58:54;;;;;;;18.43;12.07;;;26.40;33.80;;;;;;4997508;28;20441;-74
2022/07/21 09:01:23;;;;;;;18.27;11.70;;;26.30;34.70;;;;;;5002657;28;20833;-74
2022/07/21 09:03:50;;;;;;;18.10;11.00;;;26.30;34.50;;;;;;4998483;28;20189;-74
2022/07/21 09:06:16;;;;;;;14.93;11.97;;;26.10;35.30;;;;;;5003005;28;20608;-74
2022/07/21 09:08:50;;;;;;;18.87;12.47;;;25.70;39.10;;;;;;4996386;28;20429;-75
2022/07/21 09:11:21;;;;;;;16.57;11.83;;;25.50;39.60;;;;;;5004964;28;20444;-75
2022/07/21 09:14:03;;;;;;;14.90;11.57;;;25.30;39.50;;;;;;4978149;28;20556;-74
2022/07/21 09:16:37;;;;;;;18.93;11.30;;;25.40;39.80;;;;;;4981539;28;20449;-74
2022/07/21 09:19:03;;;;;;;17.73;10.90;;;25.90;37.80;;;;;;4994744;28;20775;-74
2022/07/21 09:21:30;;;;;;;16.70;10.90;;;25.80;37.40;;;;;;5002595;28;20507;-73
2022/07/21 09:24:18;;;;;;;12.33;10.37;;;25.60;36.00;;;;;;4985085;28;20473;-74
2022/07/21 09:27:09;;;;;;;16.97;11.30;;;25.60;36.50;;;;;;5005521;28;20416;-74
2022/07/21 09:30:02;;;;;;;16.07;10.60;;;25.30;37.30;;;;;;5000917;28;21009;-74
2022/07/21 09:32:30;;;;;;;14.73;10.90;;;25.40;37.10;;;;;;4968915;28;20430;-74
2022/07/21 09:35:05;;;;;;;14.77;10.10;;;25.40;36.50;;;;;;4972748;28;20888;-73
2022/07/21 09:37:32;;;;;;;20.90;10.43;;;25.50;37.20;;;;;;4973202;28;20420;-74
2022/07/21 09:40:00;;;;;;;16.90;10.70;;;25.20;36.60;;;;;;4974047;28;20434;-74
2022/07/21 09:42:31;;;;;;;16.47;10.53;;;25.30;36.70;;;;;;4972558;28;20516;-74
2022/07/21 09:44:59;;;;;;;19.17;10.30;;;25.30;37.10;;;;;;4972814;28;20444;-74
2022/07/21 09:47:27;;;;;;;15.20;9.90;;;25.30;37.50;;;;;;4983177;28;20494;-73
2022/07/21 09:49:54;;;;;;;16.37;10.20;;;25.30;38.10;;;;;;4996106;28;20435;-74
2022/07/21 09:52:33;;;;;;;16.27;9.50;;;26.40;31.90;;;;;;4991668;28;20413;-74
2022/07/21 09:55:08;;;;;;;29.07;10.20;;;26.50;32.60;;;;;;4989662;28;20614;-74
2022/07/21 09:57:34;;;;;;;20.13;9.10;;;26.80;30.00;;;;;;4969832;28;20439;-74
2022/07/21 10:00:02;;;;;;;12.83;9.53;;;26.10;32.90;;;;;;4999557;28;20420;-74
2022/07/21 10:02:30;;;;;;;14.30;9.57;;;25.50;34.00;;;;;;5011232;28;20435;-75
2022/07/21 10:05:00;;;;;;;11.93;9.20;;;25.50;34.80;;;;;;5011547;28;20937;-73
2022/07/21 10:07:27;;;;;;;16.67;9.17;;;25.90;33.90;;;;;;4991873;28;20429;-74
2022/07/21 10:09:53;;;;;;;14.00;8.87;;;26.60;32.30;;;;;;4997990;28;20446;-77
2022/07/21 10:12:19;;;;;;;12.70;8.40;;;26.80;30.00;;;;;;4982149;28;20435;-77
2022/07/21 10:14:46;;;;;;;12.53;8.47;;;27.30;28.90;;;;;;5003191;28;20521;-76
2022/07/21 10:17:16;;;;;;;15.30;8.37;;;27.20;28.70;;;;;;5002669;28;20524;-77
2022/07/21 10:19:49;;;;;;;11.27;7.80;;;27.10;28.70;;;;;;4997039;28;20429;-77
2022/07/21 10:22:23;;;;;;;12.30;8.30;;;26.90;28.60;;;;;;5010097;28;20888;-76
2022/07/21 10:24:49;;;;;;;17.70;8.60;;;26.90;29.40;;;;;;5011000;28;20792;-76
2022/07/21 10:27:15;;;;;;;11.13;8.37;;;27.70;27.70;;;;;;5000898;28;20422;-76
2022/07/21 10:29:47;;;;;;;11.53;8.23;;;27.40;26.50;;;;;;4993796;28;20446;-76
2022/07/21 10:32:14;;;;;;;11.17;7.23;;;27.30;26.70;;;;;;4993237;28;20185;-76
2022/07/21 10:34:40;;;;;;;11.47;7.87;;;27.00;29.00;;;;;;4987956;28;20488;-76
2022/07/21 10:37:06;;;;;;;10.37;7.80;;;28.00;29.70;;;;;;4996937;28;20416;-77
2022/07/21 10:39:35;;;;;;;11.90;8.00;;;27.60;27.40;;;;;;4990696;28;20268;-76
2022/07/21 10:42:16;;;;;;;9.33;8.43;;;27.10;28.50;;;;;;4991202;28;20655;-76
2022/07/21 10:44:44;;;;;;;11.13;8.40;;;27.20;27.00;;;;;;4986767;28;20465;-76
2022/07/21 10:47:17;;;;;;;13.10;7.70;;;27.10;27.40;;;;;;5003056;28;20938;-76
2022/07/21 10:49:48;;;;;;;11.13;7.77;;;27.10;28.00;;;;;;5003357;28;20435;-76
2022/07/21 10:52:35;;;;;;;10.47;7.67;;;28.10;26.00;;;;;;5010889;28;20403;-76
2022/07/21 10:55:10;;;;;;;11.40;8.20;;;27.40;27.50;;;;;;5005995;28;20859;-76
2022/07/21 10:57:46;;;;;;;13.80;7.90;;;27.20;27.30;;;;;;5003060;28;20414;-76
2022/07/21 11:00:35;;;;;;;11.80;7.87;;;28.20;24.90;;;;;;4989449;28;20590;-76
2022/07/21 11:03:02;;;;;;;11.13;8.50;;;28.20;24.60;;;;;;5002582;28;20418;-76
2022/07/21 11:05:30;;;;;;;10.80;7.10;;;28.20;25.10;;;;;;5002222;28;20883;-76
2022/07/21 11:08:19;;;;;;;11.97;8.50;;;28.60;24.90;;;;;;4995211;28;20519;-76
2022/07/21 11:10:48;;;;;;;14.23;8.50;;;27.60;26.30;;;;;;4977311;28;20503;-76
2022/07/21 11:13:15;;;;;;;10.57;7.20;;;27.40;27.30;;;;;;4996943;28;20464;-76
2022/07/21 11:16:00;;;;;;;10.60;8.17;;;27.50;27.60;;;;;;4990767;28;20439;-77
2022/07/21 11:18:32;;;;;;;9.60;7.87;;;28.30;25.80;;;;;;4989446;28;21209;-77
2022/07/21 11:21:08;;;;;;;14.20;8.10;;;28.50;24.20;;;;;;4995724;28;20570;-76
2022/07/21 11:23:42;;;;;;;9.67;7.33;;;28.50;25.00;;;;;;4989420;28;20441;-77
2022/07/21 11:26:09;;;;;;;12.60;8.60;;;27.50;26.30;;;;;;5006075;28;20435;-77
2022/07/21 11:28:35;;;;;;;9.57;7.70;;;27.60;26.30;;;;;;5000929;28;20450;-77
2022/07/21 11:31:08;;;;;;;10.60;8.03;;;28.40;28.40;;;;;;4993549;28;20439;-76
2022/07/21 11:33:37;;;;;;;9.77;7.77;;;29.40;24.90;;;;;;5005583;28;20205;-81
2022/07/21 11:36:03;;;;;;;8.80;7.10;;;29.90;23.80;;;;;;5013822;28;20953;-77
2022/07/21 11:38:29;;;;;;;12.13;7.53;;;29.10;22.60;;;;;;5013748;28;20822;-76
2022/07/21 11:41:18;;;;;;;10.80;8.23;;;29.50;22.60;;;;;;5000714;28;20539;-76
2022/07/21 11:43:45;;;;;;;17.40;6.80;;;28.80;23.00;;;;;;4976896;28;20178;-76
2022/07/21 11:46:11;;;;;;;8.70;6.70;;;28.70;23.80;;;;;;4974691;28;20441;-76
2022/07/21 11:48:36;;;;;;;15.03;7.20;;;29.00;23.80;;;;;;4990857;28;20440;-76
2022/07/21 11:51:03;;;;;;;7.80;6.80;;;29.30;23.40;;;;;;4995676;28;20236;-76
2022/07/21 11:53:30;;;;;;;13.40;6.83;;;31.20;20.50;;;;;;4989953;28;20214;-77
2022/07/21 11:55:55;;;;;;;15.80;6.53;;;31.50;19.40;;;;;;4978901;28;21019;-77
2022/07/21 11:58:21;;;;;;;7.53;6.13;;;30.40;19.30;;;;;;5003463;28;20447;-76
2022/07/21 12:00:47;;;;;;;10.93;6.63;;;30.40;20.20;;;;;;5005811;28;20178;-77
2022/07/21 12:03:14;;;;;;;10.97;6.93;;;30.20;20.80;;;;;;4982994;28;20552;-76
2022/07/21 12:05:40;;;;;;;7.97;6.43;;;31.10;22.20;;;;;;4999829;28;20452;-76
2022/07/21 12:08:06;;;;;;;13.47;6.90;;;30.50;18.80;;;;;;5004710;28;20417;-77
2022/07/21 12:10:32;;;;;;;13.43;6.30;;;30.80;22.00;;;;;;4991381;28;20464;-77
2022/07/21 12:13:03;;;;;;;8.30;6.57;;;30.20;20.50;;;;;;4991784;28;20193;-75
2022/07/21 12:15:34;;;;;;;9.67;6.60;;;30.10;20.90;;;;;;4997338;28;20455;-74
2022/07/21 12:18:05;;;;;;;9.47;6.20;;;30.60;20.30;;;;;;4998648;28;21005;-75
2022/07/21 12:20:33;;;;;;;9.20;6.43;;;30.80;19.10;;;;;;4986285;28;20522;-75
2022/07/21 12:23:17;;;;;;;8.87;6.37;;;30.40;18.40;;;;;;4987260;28;20525;-75
2022/07/21 12:25:43;;;;;;;6.40;5.50;;;30.80;20.30;;;;;;4981586;28;20452;-75
2022/07/21 12:28:09;;;;;;;7.73;5.80;;;32.40;17.90;;;;;;4979308;28;20437;-75
2022/07/21 12:30:38;;;;;;;7.70;5.83;;;32.10;17.30;;;;;;4993551;28;20241;-75
2022/07/21 12:33:12;;;;;;;9.60;6.03;;;31.10;17.90;;;;;;4991717;28;20518;-75
2022/07/21 12:35:40;;;;;;;9.57;6.37;;;31.40;17.30;;;;;;4989072;28;20457;-76